sensor_id;sensor_type;location;lat;lon;timestamp;temperature;humidity
2327;DHT22;1174;51.588;7.328;2023-01-15T00:01:18;7.70;99.90
2327;DHT22;1174;51.588;7.328;2023-01-15T00:03:46;7.60;99.90
2327;DHT22;1174;51.588;7.328;2023-01-15T00:06:15;7.50;99.90
2327;DHT22;1174;51.588;7.328;2023-01-15T00:08:42;7.30;99.90
2327;DHT22;1174;51.588;7.328;2023-01-15T00:11:09;7.10;99.90
2327;DHT22;1174;51.588;7.328;2023-01-15T00:13:37;7.00;99.90
2327;DHT22;1174;51.588;7.328;2023-01-15T00:16:05;6.90;99.90
2327;DHT22;1174;51.588;7.328;2023-01-15T00:18:32;6.90;99.90
2327;DHT22;1174;51.588;7.328;2023-01-15T00:20:59;6.80;99.90
2327;DHT22;1174;51.588;7.328;2023-01-15T00:23:30;6.80;99.90
2327;DHT22;1174;51.588;7.328;2023-01-15T00:26:16;6.90;99.90
2327;DHT22;1174;51.588;7.328;2023-01-15T00:29:00;6.90;99.90
2327;DHT22;1174;51.588;7.328;2023-01-15T00:31:28;6.90;99.90
2327;DHT22;1174;51.588;7.328;2023-01-15T00:33:55;6.80;99.90
2327;DHT22;1174;51.588;7.328;2023-01-15T00:36:22;6.90;99.90
2327;DHT22;1174;51.588;7.328;2023-01-15T00:38:51;7.00;99.90
2327;DHT22;1174;51.588;7.328;2023-01-15T00:41:19;7.00;99.90
2327;DHT22;1174;51.588;7.328;2023-01-15T00:43:47;7.10;99.90
2327;DHT22;1174;51.588;7.328;2023-01-15T00:46:14;7.10;99.90
2327;DHT22;1174;51.588;7.328;2023-01-15T00:48:41;7.10;99.90
2327;DHT22;1174;51.588;7.328;2023-01-15T00:51:08;7.20;99.90
2327;DHT22;1174;51.588;7.328;2023-01-15T00:53:35;7.20;99.90
2327;DHT22;1174;51.588;7.328;2023-01-15T00:56:04;7.20;99.90
2327;DHT22;1174;51.588;7.328;2023-01-15T00:58:31;7.30;99.90
2327;DHT22;1174;51.588;7.328;2023-01-15T01:00:58;7.20;99.90
2327;DHT22;1174;51.588;7.328;2023-01-15T01:03:26;7.30;99.90
2327;DHT22;1174;51.588;7.328;2023-01-15T01:05:58;7.20;99.90
2327;DHT22;1174;51.588;7.328;2023-01-15T01:08:25;7.20;99.90
2327;DHT22;1174;51.588;7.328;2023-01-15T01:11:00;7.30;99.90
2327;DHT22;1174;51.588;7.328;2023-01-15T01:13:30;7.30;99.90
2327;DHT22;1174;51.588;7.328;2023-01-15T01:15:57;7.40;99.90
2327;DHT22;1174;51.588;7.328;2023-01-15T01:18:25;7.40;99.90
2327;DHT22;1174;51.588;7.328;2023-01-15T01:20:52;7.40;99.90
2327;DHT22;1174;51.588;7.328;2023-01-15T01:23:20;7.40;99.90
2327;DHT22;1174;51.588;7.328;2023-01-15T01:25:48;7.40;99.90
2327;DHT22;1174;51.588;7.328;2023-01-15T01:28:15;7.50;99.90
2327;DHT22;1174;51.588;7.328;2023-01-15T01:30:43;7.40;99.90
2327;DHT22;1174;51.588;7.328;2023-01-15T01:33:11;7.30;99.90
2327;DHT22;1174;51.588;7.328;2023-01-15T01:35:38;7.40;99.90
2327;DHT22;1174;51.588;7.328;2023-01-15T01:38:05;7.40;99.90
2327;DHT22;1174;51.588;7.328;2023-01-15T01:40:32;7.40;99.90
2327;DHT22;1174;51.588;7.328;2023-01-15T01:42:59;7.40;99.90
2327;DHT22;1174;51.588;7.328;2023-01-15T01:45:29;7.40;99.90
2327;DHT22;1174;51.588;7.328;2023-01-15T01:48:02;7.40;99.90
2327;DHT22;1174;51.588;7.328;2023-01-15T01:50:33;7.50;99.90
2327;DHT22;1174;51.588;7.328;2023-01-15T01:53:04;7.40;99.90
2327;DHT22;1174;51.588;7.328;2023-01-15T01:55:34;7.40;99.90
2327;DHT22;1174;51.588;7.328;2023-01-15T01:58:05;7.50;99.90
2327;DHT22;1174;51.588;7.328;2023-01-15T02:00:35;7.40;99.90
2327;DHT22;1174;51.588;7.328;2023-01-15T02:03:07;7.40;99.90
2327;DHT22;1174;51.588;7.328;2023-01-15T02:05:45;7.40;99.90
2327;DHT22;1174;51.588;7.328;2023-01-15T02:08:13;7.50;99.90
2327;DHT22;1174;51.588;7.328;2023-01-15T02:10:40;7.40;99.90
2327;DHT22;1174;51.588;7.328;2023-01-15T02:13:10;7.40;99.90
2327;DHT22;1174;51.588;7.328;2023-01-15T02:15:40;7.40;99.90
2327;DHT22;1174;51.588;7.328;2023-01-15T02:18:18;7.40;99.90
2327;DHT22;1174;51.588;7.328;2023-01-15T02:20:52;7.50;99.90
2327;DHT22;1174;51.588;7.328;2023-01-15T02:29:12;7.60;99.90
2327;DHT22;1174;51.588;7.328;2023-01-15T02:31:42;7.60;99.90
2327;DHT22;1174;51.588;7.328;2023-01-15T02:34:13;7.50;99.90
2327;DHT22;1174;51.588;7.328;2023-01-15T02:36:44;7.50;99.90
2327;DHT22;1174;51.588;7.328;2023-01-15T02:39:14;7.50;99.90
2327;DHT22;1174;51.588;7.328;2023-01-15T02:41:47;7.60;99.90
2327;DHT22;1174;51.588;7.328;2023-01-15T02:44:19;7.60;99.90
2327;DHT22;1174;51.588;7.328;2023-01-15T02:46:48;7.60;99.90
2327;DHT22;1174;51.588;7.328;2023-01-15T02:49:18;7.60;99.90
2327;DHT22;1174;51.588;7.328;2023-01-15T02:51:52;7.50;99.90
2327;DHT22;1174;51.588;7.328;2023-01-15T02:54:23;7.50;99.90
2327;DHT22;1174;51.588;7.328;2023-01-15T02:56:54;7.50;99.90
2327;DHT22;1174;51.588;7.328;2023-01-15T02:59:28;7.50;99.90
2327;DHT22;1174;51.588;7.328;2023-01-15T03:01:59;7.50;99.90
2327;DHT22;1174;51.588;7.328;2023-01-15T03:04:30;7.50;99.90
2327;DHT22;1174;51.588;7.328;2023-01-15T03:07:02;7.50;99.90
2327;DHT22;1174;51.588;7.328;2023-01-15T03:09:32;7.60;99.90
2327;DHT22;1174;51.588;7.328;2023-01-15T03:12:06;7.50;99.90
2327;DHT22;1174;51.588;7.328;2023-01-15T03:14:40;7.50;99.90
2327;DHT22;1174;51.588;7.328;2023-01-15T03:17:14;7.50;99.90
2327;DHT22;1174;51.588;7.328;2023-01-15T03:19:46;7.40;99.90
2327;DHT22;1174;51.588;7.328;2023-01-15T03:22:18;7.50;99.90
2327;DHT22;1174;51.588;7.328;2023-01-15T03:24:49;7.50;99.90
2327;DHT22;1174;51.588;7.328;2023-01-15T03:27:18;7.50;99.90
2327;DHT22;1174;51.588;7.328;2023-01-15T03:29:48;7.50;99.90
2327;DHT22;1174;51.588;7.328;2023-01-15T03:32:17;7.60;99.90
2327;DHT22;1174;51.588;7.328;2023-01-15T03:34:47;7.50;99.90
2327;DHT22;1174;51.588;7.328;2023-01-15T03:37:15;7.50;99.90
2327;DHT22;1174;51.588;7.328;2023-01-15T03:39:43;7.50;99.90
2327;DHT22;1174;51.588;7.328;2023-01-15T03:42:17;7.50;99.90
2327;DHT22;1174;51.588;7.328;2023-01-15T03:44:53;7.50;99.90
2327;DHT22;1174;51.588;7.328;2023-01-15T03:47:32;7.50;99.90
2327;DHT22;1174;51.588;7.328;2023-01-15T03:50:09;7.50;99.90
2327;DHT22;1174;51.588;7.328;2023-01-15T03:52:44;7.50;99.90
2327;DHT22;1174;51.588;7.328;2023-01-15T03:55:15;7.50;99.90
2327;DHT22;1174;51.588;7.328;2023-01-15T03:57:47;7.50;99.90
2327;DHT22;1174;51.588;7.328;2023-01-15T04:00:19;7.50;99.90
2327;DHT22;1174;51.588;7.328;2023-01-15T04:02:48;7.50;99.90
2327;DHT22;1174;51.588;7.328;2023-01-15T04:05:19;7.40;99.90
2327;DHT22;1174;51.588;7.328;2023-01-15T04:07:48;7.40;99.90
2327;DHT22;1174;51.588;7.328;2023-01-15T04:10:16;7.40;99.90
2327;DHT22;1174;51.588;7.328;2023-01-15T04:12:43;7.40;99.90
2327;DHT22;1174;51.588;7.328;2023-01-15T04:15:10;7.40;99.90
2327;DHT22;1174;51.588;7.328;2023-01-15T04:17:38;7.40;99.90
2327;DHT22;1174;51.588;7.328;2023-01-15T04:20:07;7.50;99.90
2327;DHT22;1174;51.588;7.328;2023-01-15T04:22:34;7.40;99.90
2327;DHT22;1174;51.588;7.328;2023-01-15T04:25:01;7.50;99.90
2327;DHT22;1174;51.588;7.328;2023-01-15T04:27:28;7.40;99.90
2327;DHT22;1174;51.588;7.328;2023-01-15T04:29:55;7.30;99.90
2327;DHT22;1174;51.588;7.328;2023-01-15T04:32:22;7.30;99.90
2327;DHT22;1174;51.588;7.328;2023-01-15T04:34:53;7.30;99.90
2327;DHT22;1174;51.588;7.328;2023-01-15T04:37:20;7.20;99.90
2327;DHT22;1174;51.588;7.328;2023-01-15T04:39:47;7.20;99.90
2327;DHT22;1174;51.588;7.328;2023-01-15T04:42:14;7.20;99.90
2327;DHT22;1174;51.588;7.328;2023-01-15T04:44:59;7.30;99.90
2327;DHT22;1174;51.588;7.328;2023-01-15T04:47:29;7.30;99.90
2327;DHT22;1174;51.588;7.328;2023-01-15T04:49:58;7.30;99.90
2327;DHT22;1174;51.588;7.328;2023-01-15T04:52:25;7.40;99.90
2327;DHT22;1174;51.588;7.328;2023-01-15T04:54:54;7.40;99.90
2327;DHT22;1174;51.588;7.328;2023-01-15T04:57:21;7.40;99.90
2327;DHT22;1174;51.588;7.328;2023-01-15T04:59:48;7.40;99.90
2327;DHT22;1174;51.588;7.328;2023-01-15T05:02:15;7.50;99.90
2327;DHT22;1174;51.588;7.328;2023-01-15T05:04:42;7.40;99.90
2327;DHT22;1174;51.588;7.328;2023-01-15T05:07:10;7.40;99.90
2327;DHT22;1174;51.588;7.328;2023-01-15T05:09:37;7.40;99.90
2327;DHT22;1174;51.588;7.328;2023-01-15T05:12:05;7.40;99.90
2327;DHT22;1174;51.588;7.328;2023-01-15T05:14:32;7.40;99.90
2327;DHT22;1174;51.588;7.328;2023-01-15T05:16:59;7.40;99.90
2327;DHT22;1174;51.588;7.328;2023-01-15T05:19:26;7.30;99.90
2327;DHT22;1174;51.588;7.328;2023-01-15T05:21:53;7.40;99.90
2327;DHT22;1174;51.588;7.328;2023-01-15T05:24:21;7.30;99.90
2327;DHT22;1174;51.588;7.328;2023-01-15T05:26:49;7.20;99.90
2327;DHT22;1174;51.588;7.328;2023-01-15T05:29:16;7.30;99.90
2327;DHT22;1174;51.588;7.328;2023-01-15T05:31:43;7.30;99.90
2327;DHT22;1174;51.588;7.328;2023-01-15T05:34:11;7.30;99.90
2327;DHT22;1174;51.588;7.328;2023-01-15T05:36:38;7.30;99.90
2327;DHT22;1174;51.588;7.328;2023-01-15T05:39:06;7.30;99.90
2327;DHT22;1174;51.588;7.328;2023-01-15T05:41:35;7.30;99.90
2327;DHT22;1174;51.588;7.328;2023-01-15T05:44:20;7.40;99.90
2327;DHT22;1174;51.588;7.328;2023-01-15T05:46:48;7.30;99.90
2327;DHT22;1174;51.588;7.328;2023-01-15T05:49:17;7.30;99.90
2327;DHT22;1174;51.588;7.328;2023-01-15T05:51:45;7.40;99.90
2327;DHT22;1174;51.588;7.328;2023-01-15T05:54:15;7.40;99.90
2327;DHT22;1174;51.588;7.328;2023-01-15T05:56:44;7.50;99.90
2327;DHT22;1174;51.588;7.328;2023-01-15T05:59:13;7.50;99.90
2327;DHT22;1174;51.588;7.328;2023-01-15T06:01:40;7.50;99.90
2327;DHT22;1174;51.588;7.328;2023-01-15T06:04:08;7.50;99.90
2327;DHT22;1174;51.588;7.328;2023-01-15T06:06:36;7.60;99.90
2327;DHT22;1174;51.588;7.328;2023-01-15T06:09:03;7.50;99.90
2327;DHT22;1174;51.588;7.328;2023-01-15T06:11:30;7.40;99.90
2327;DHT22;1174;51.588;7.328;2023-01-15T06:13:59;7.40;99.90
2327;DHT22;1174;51.588;7.328;2023-01-15T06:16:26;7.30;99.90
2327;DHT22;1174;51.588;7.328;2023-01-15T06:18:53;7.30;99.90
2327;DHT22;1174;51.588;7.328;2023-01-15T06:21:20;7.40;99.90
2327;DHT22;1174;51.588;7.328;2023-01-15T06:23:47;7.40;99.90
2327;DHT22;1174;51.588;7.328;2023-01-15T06:26:16;7.40;99.90
2327;DHT22;1174;51.588;7.328;2023-01-15T06:28:44;7.50;99.90
2327;DHT22;1174;51.588;7.328;2023-01-15T06:31:14;7.40;99.90
2327;DHT22;1174;51.588;7.328;2023-01-15T06:33:42;7.40;99.90
2327;DHT22;1174;51.588;7.328;2023-01-15T06:36:11;7.40;99.90
2327;DHT22;1174;51.588;7.328;2023-01-15T06:38:39;7.50;99.90
2327;DHT22;1174;51.588;7.328;2023-01-15T06:41:08;7.40;99.90
2327;DHT22;1174;51.588;7.328;2023-01-15T06:43:50;7.40;99.90
2327;DHT22;1174;51.588;7.328;2023-01-15T06:46:32;7.40;99.90
2327;DHT22;1174;51.588;7.328;2023-01-15T06:49:15;7.40;99.90
2327;DHT22;1174;51.588;7.328;2023-01-15T06:51:45;7.40;99.90
2327;DHT22;1174;51.588;7.328;2023-01-15T06:54:12;7.40;99.90
2327;DHT22;1174;51.588;7.328;2023-01-15T06:56:39;7.40;99.90
2327;DHT22;1174;51.588;7.328;2023-01-15T06:59:06;7.40;99.90
2327;DHT22;1174;51.588;7.328;2023-01-15T07:01:34;7.40;99.90
2327;DHT22;1174;51.588;7.328;2023-01-15T07:04:01;7.40;99.90
2327;DHT22;1174;51.588;7.328;2023-01-15T07:06:28;7.40;99.90
2327;DHT22;1174;51.588;7.328;2023-01-15T07:08:55;7.30;99.90
2327;DHT22;1174;51.588;7.328;2023-01-15T07:11:23;7.40;99.90
2327;DHT22;1174;51.588;7.328;2023-01-15T07:13:49;7.40;99.90
2327;DHT22;1174;51.588;7.328;2023-01-15T07:16:30;7.50;99.90
2327;DHT22;1174;51.588;7.328;2023-01-15T07:18:58;7.50;99.90
2327;DHT22;1174;51.588;7.328;2023-01-15T07:21:26;7.50;99.90
2327;DHT22;1174;51.588;7.328;2023-01-15T07:23:53;7.50;99.90
2327;DHT22;1174;51.588;7.328;2023-01-15T07:26:21;7.50;99.90
2327;DHT22;1174;51.588;7.328;2023-01-15T07:28:48;7.50;99.90
2327;DHT22;1174;51.588;7.328;2023-01-15T07:31:15;7.50;99.90
2327;DHT22;1174;51.588;7.328;2023-01-15T07:33:42;7.50;99.90
2327;DHT22;1174;51.588;7.328;2023-01-15T07:36:11;7.50;99.90
2327;DHT22;1174;51.588;7.328;2023-01-15T07:38:38;7.50;99.90
2327;DHT22;1174;51.588;7.328;2023-01-15T07:41:05;7.50;99.90
2327;DHT22;1174;51.588;7.328;2023-01-15T07:43:49;7.40;99.90
2327;DHT22;1174;51.588;7.328;2023-01-15T07:46:33;7.40;99.90
2327;DHT22;1174;51.588;7.328;2023-01-15T07:49:20;7.30;99.90
2327;DHT22;1174;51.588;7.328;2023-01-15T07:52:06;7.30;99.90
2327;DHT22;1174;51.588;7.328;2023-01-15T07:54:33;7.30;99.90
2327;DHT22;1174;51.588;7.328;2023-01-15T07:57:00;7.30;99.90
2327;DHT22;1174;51.588;7.328;2023-01-15T07:59:27;7.40;99.90
2327;DHT22;1174;51.588;7.328;2023-01-15T08:01:54;7.50;99.90
2327;DHT22;1174;51.588;7.328;2023-01-15T08:04:21;7.50;99.90
2327;DHT22;1174;51.588;7.328;2023-01-15T08:06:48;7.40;99.90
2327;DHT22;1174;51.588;7.328;2023-01-15T08:09:16;7.40;99.90
2327;DHT22;1174;51.588;7.328;2023-01-15T08:11:43;7.30;99.90
2327;DHT22;1174;51.588;7.328;2023-01-15T08:14:27;7.30;99.90
2327;DHT22;1174;51.588;7.328;2023-01-15T08:17:11;7.30;99.90
2327;DHT22;1174;51.588;7.328;2023-01-15T08:19:38;7.40;99.90
2327;DHT22;1174;51.588;7.328;2023-01-15T08:22:05;7.40;99.90
2327;DHT22;1174;51.588;7.328;2023-01-15T08:24:34;7.40;99.90
2327;DHT22;1174;51.588;7.328;2023-01-15T08:27:01;7.30;99.90
2327;DHT22;1174;51.588;7.328;2023-01-15T08:29:27;7.40;99.90
2327;DHT22;1174;51.588;7.328;2023-01-15T08:31:54;7.40;99.90
2327;DHT22;1174;51.588;7.328;2023-01-15T08:34:22;7.40;99.90
2327;DHT22;1174;51.588;7.328;2023-01-15T08:36:48;7.30;99.90
2327;DHT22;1174;51.588;7.328;2023-01-15T08:39:21;7.40;99.90
2327;DHT22;1174;51.588;7.328;2023-01-15T08:41:49;7.40;99.90
2327;DHT22;1174;51.588;7.328;2023-01-15T08:44:17;7.30;99.90
2327;DHT22;1174;51.588;7.328;2023-01-15T08:46:46;7.30;99.90
2327;DHT22;1174;51.588;7.328;2023-01-15T08:49:13;7.40;99.90
2327;DHT22;1174;51.588;7.328;2023-01-15T08:51:40;7.30;99.90
2327;DHT22;1174;51.588;7.328;2023-01-15T08:54:07;7.30;99.90
2327;DHT22;1174;51.588;7.328;2023-01-15T08:56:34;7.30;99.90
2327;DHT22;1174;51.588;7.328;2023-01-15T08:59:04;7.30;99.90
2327;DHT22;1174;51.588;7.328;2023-01-15T09:01:32;7.40;99.90
2327;DHT22;1174;51.588;7.328;2023-01-15T09:03:59;7.40;99.90
2327;DHT22;1174;51.588;7.328;2023-01-15T09:06:26;7.40;99.90
2327;DHT22;1174;51.588;7.328;2023-01-15T09:08:53;7.30;99.90
2327;DHT22;1174;51.588;7.328;2023-01-15T09:11:20;7.20;99.90
2327;DHT22;1174;51.588;7.328;2023-01-15T09:13:47;7.20;99.90
2327;DHT22;1174;51.588;7.328;2023-01-15T09:16:17;7.10;99.90
2327;DHT22;1174;51.588;7.328;2023-01-15T09:18:44;7.20;99.90
2327;DHT22;1174;51.588;7.328;2023-01-15T09:21:11;7.10;99.90
2327;DHT22;1174;51.588;7.328;2023-01-15T09:23:38;7.20;99.90
2327;DHT22;1174;51.588;7.328;2023-01-15T09:26:06;7.10;99.90
2327;DHT22;1174;51.588;7.328;2023-01-15T09:28:34;7.20;99.90
2327;DHT22;1174;51.588;7.328;2023-01-15T09:31:01;7.10;99.90
2327;DHT22;1174;51.588;7.328;2023-01-15T09:33:29;7.10;99.90
2327;DHT22;1174;51.588;7.328;2023-01-15T09:35:56;7.10;99.90
2327;DHT22;1174;51.588;7.328;2023-01-15T09:38:23;7.20;99.90
2327;DHT22;1174;51.588;7.328;2023-01-15T09:40:52;7.10;99.90
2327;DHT22;1174;51.588;7.328;2023-01-15T09:43:37;7.30;99.90
2327;DHT22;1174;51.588;7.328;2023-01-15T09:46:10;7.40;99.90
2327;DHT22;1174;51.588;7.328;2023-01-15T09:48:50;7.50;99.90
2327;DHT22;1174;51.588;7.328;2023-01-15T09:51:27;7.80;99.90
2327;DHT22;1174;51.588;7.328;2023-01-15T09:54:10;7.70;99.90
2327;DHT22;1174;51.588;7.328;2023-01-15T09:56:40;7.50;99.90
2327;DHT22;1174;51.588;7.328;2023-01-15T09:59:18;7.80;99.90
2327;DHT22;1174;51.588;7.328;2023-01-15T10:01:46;7.70;99.90
2327;DHT22;1174;51.588;7.328;2023-01-15T10:04:31;8.20;99.90
2327;DHT22;1174;51.588;7.328;2023-01-15T10:07:06;8.70;99.90
2327;DHT22;1174;51.588;7.328;2023-01-15T10:09:39;8.30;99.90
2327;DHT22;1174;51.588;7.328;2023-01-15T10:12:17;8.60;99.90
2327;DHT22;1174;51.588;7.328;2023-01-15T10:15:31;8.40;99.90
2327;DHT22;1174;51.588;7.328;2023-01-15T10:17:59;8.30;99.90
2327;DHT22;1174;51.588;7.328;2023-01-15T10:20:47;8.10;99.90
2327;DHT22;1174;51.588;7.328;2023-01-15T10:23:33;7.90;99.90
2327;DHT22;1174;51.588;7.328;2023-01-15T10:26:07;7.70;99.90
2327;DHT22;1174;51.588;7.328;2023-01-15T10:28:57;7.60;99.90
2327;DHT22;1174;51.588;7.328;2023-01-15T10:31:36;7.80;99.90
2327;DHT22;1174;51.588;7.328;2023-01-15T10:34:46;7.70;99.90
2327;DHT22;1174;51.588;7.328;2023-01-15T10:37:28;7.50;99.90
2327;DHT22;1174;51.588;7.328;2023-01-15T10:40:31;7.50;99.90
2327;DHT22;1174;51.588;7.328;2023-01-15T10:43:08;7.50;99.90
2327;DHT22;1174;51.588;7.328;2023-01-15T10:45:40;7.80;99.90
2327;DHT22;1174;51.588;7.328;2023-01-15T10:48:13;7.80;99.90
2327;DHT22;1174;51.588;7.328;2023-01-15T10:50:45;7.90;99.90
2327;DHT22;1174;51.588;7.328;2023-01-15T10:53:26;8.00;99.90
2327;DHT22;1174;51.588;7.328;2023-01-15T10:56:00;8.20;99.90
2327;DHT22;1174;51.588;7.328;2023-01-15T10:58:34;8.20;99.90
2327;DHT22;1174;51.588;7.328;2023-01-15T11:01:07;8.20;99.90
2327;DHT22;1174;51.588;7.328;2023-01-15T11:03:38;8.40;99.90
2327;DHT22;1174;51.588;7.328;2023-01-15T11:06:12;8.40;99.90
2327;DHT22;1174;51.588;7.328;2023-01-15T11:08:44;8.30;99.90
2327;DHT22;1174;51.588;7.328;2023-01-15T11:11:22;8.30;99.90
2327;DHT22;1174;51.588;7.328;2023-01-15T11:14:03;8.30;99.90
2327;DHT22;1174;51.588;7.328;2023-01-15T11:16:50;8.20;99.90
2327;DHT22;1174;51.588;7.328;2023-01-15T11:19:37;8.20;99.90
2327;DHT22;1174;51.588;7.328;2023-01-15T11:22:09;8.20;99.90
2327;DHT22;1174;51.588;7.328;2023-01-15T11:24:45;8.50;99.90
2327;DHT22;1174;51.588;7.328;2023-01-15T11:27:15;8.40;99.90
2327;DHT22;1174;51.588;7.328;2023-01-15T11:29:51;8.50;99.90
2327;DHT22;1174;51.588;7.328;2023-01-15T11:32:24;9.00;99.90
2327;DHT22;1174;51.588;7.328;2023-01-15T11:34:53;9.60;99.90
2327;DHT22;1174;51.588;7.328;2023-01-15T11:37:25;10.00;99.90
2327;DHT22;1174;51.588;7.328;2023-01-15T11:39:55;9.50;99.90
2327;DHT22;1174;51.588;7.328;2023-01-15T11:42:22;9.10;99.90
2327;DHT22;1174;51.588;7.328;2023-01-15T11:45:15;8.90;99.90
2327;DHT22;1174;51.588;7.328;2023-01-15T11:48:13;8.70;99.90
2327;DHT22;1174;51.588;7.328;2023-01-15T11:51:03;8.80;99.90
2327;DHT22;1174;51.588;7.328;2023-01-15T11:53:34;8.50;99.90
2327;DHT22;1174;51.588;7.328;2023-01-15T11:56:09;8.40;99.90
2327;DHT22;1174;51.588;7.328;2023-01-15T11:58:43;8.40;99.90
2327;DHT22;1174;51.588;7.328;2023-01-15T12:01:12;8.40;99.90
2327;DHT22;1174;51.588;7.328;2023-01-15T12:03:41;8.30;99.90
2327;DHT22;1174;51.588;7.328;2023-01-15T12:06:12;8.50;99.90
2327;DHT22;1174;51.588;7.328;2023-01-15T12:08:47;8.50;99.90
2327;DHT22;1174;51.588;7.328;2023-01-15T12:14:31;8.40;99.90
2327;DHT22;1174;51.588;7.328;2023-01-15T12:17:18;8.30;99.90
2327;DHT22;1174;51.588;7.328;2023-01-15T12:19:50;8.10;99.90
2327;DHT22;1174;51.588;7.328;2023-01-15T12:22:27;8.00;99.90
2327;DHT22;1174;51.588;7.328;2023-01-15T12:28:03;8.00;99.90
2327;DHT22;1174;51.588;7.328;2023-01-15T12:30:45;8.20;99.90
2327;DHT22;1174;51.588;7.328;2023-01-15T12:33:27;8.40;99.90
2327;DHT22;1174;51.588;7.328;2023-01-15T12:36:01;8.40;99.90
2327;DHT22;1174;51.588;7.328;2023-01-15T12:38:40;8.30;99.90
2327;DHT22;1174;51.588;7.328;2023-01-15T12:41:12;8.20;99.90
2327;DHT22;1174;51.588;7.328;2023-01-15T12:43:43;8.30;99.90
2327;DHT22;1174;51.588;7.328;2023-01-15T12:46:31;8.10;99.90
2327;DHT22;1174;51.588;7.328;2023-01-15T12:49:03;8.10;99.90
2327;DHT22;1174;51.588;7.328;2023-01-15T12:51:40;8.00;99.90
2327;DHT22;1174;51.588;7.328;2023-01-15T12:54:13;8.00;99.90
2327;DHT22;1174;51.588;7.328;2023-01-15T12:56:49;8.30;99.90
2327;DHT22;1174;51.588;7.328;2023-01-15T12:59:24;8.90;99.90
2327;DHT22;1174;51.588;7.328;2023-01-15T13:02:01;10.00;99.90
2327;DHT22;1174;51.588;7.328;2023-01-15T13:04:41;10.40;99.90
2327;DHT22;1174;51.588;7.328;2023-01-15T13:07:14;10.40;99.90
2327;DHT22;1174;51.588;7.328;2023-01-15T13:09:46;10.10;99.90
2327;DHT22;1174;51.588;7.328;2023-01-15T13:12:15;9.40;99.90
2327;DHT22;1174;51.588;7.328;2023-01-15T13:14:44;8.80;99.90
2327;DHT22;1174;51.588;7.328;2023-01-15T13:17:18;8.60;99.90
2327;DHT22;1174;51.588;7.328;2023-01-15T13:20:01;8.50;99.90
2327;DHT22;1174;51.588;7.328;2023-01-15T13:22:31;8.30;99.90
2327;DHT22;1174;51.588;7.328;2023-01-15T13:25:25;8.30;99.90
2327;DHT22;1174;51.588;7.328;2023-01-15T13:28:08;8.10;99.90
2327;DHT22;1174;51.588;7.328;2023-01-15T13:30:51;8.00;99.90
2327;DHT22;1174;51.588;7.328;2023-01-15T13:33:26;7.90;99.90
2327;DHT22;1174;51.588;7.328;2023-01-15T13:36:02;7.90;99.90
2327;DHT22;1174;51.588;7.328;2023-01-15T13:38:36;8.00;99.90
2327;DHT22;1174;51.588;7.328;2023-01-15T13:41:07;7.80;99.90
2327;DHT22;1174;51.588;7.328;2023-01-15T13:43:39;7.90;99.90
2327;DHT22;1174;51.588;7.328;2023-01-15T13:46:12;8.00;99.90
2327;DHT22;1174;51.588;7.328;2023-01-15T13:48:42;8.00;99.90
2327;DHT22;1174;51.588;7.328;2023-01-15T13:51:24;8.10;99.90
2327;DHT22;1174;51.588;7.328;2023-01-15T13:53:53;8.10;99.90
2327;DHT22;1174;51.588;7.328;2023-01-15T13:56:27;8.00;99.90
2327;DHT22;1174;51.588;7.328;2023-01-15T13:58:55;8.00;99.90
2327;DHT22;1174;51.588;7.328;2023-01-15T14:01:31;8.20;99.90
2327;DHT22;1174;51.588;7.328;2023-01-15T14:04:04;8.20;99.90
2327;DHT22;1174;51.588;7.328;2023-01-15T14:06:37;8.20;99.90
2327;DHT22;1174;51.588;7.328;2023-01-15T14:09:05;8.10;99.90
2327;DHT22;1174;51.588;7.328;2023-01-15T14:11:35;8.00;99.90
2327;DHT22;1174;51.588;7.328;2023-01-15T14:17:20;7.90;99.90
2327;DHT22;1174;51.588;7.328;2023-01-15T14:20:27;8.00;99.90
2327;DHT22;1174;51.588;7.328;2023-01-15T14:23:10;8.00;99.90
2327;DHT22;1174;51.588;7.328;2023-01-15T14:25:47;8.00;99.90
2327;DHT22;1174;51.588;7.328;2023-01-15T14:28:28;8.00;99.90
2327;DHT22;1174;51.588;7.328;2023-01-15T14:31:13;7.90;99.90
2327;DHT22;1174;51.588;7.328;2023-01-15T14:36:39;8.00;99.90
2327;DHT22;1174;51.588;7.328;2023-01-15T14:39:32;8.20;99.90
2327;DHT22;1174;51.588;7.328;2023-01-15T14:42:06;8.20;99.90
2327;DHT22;1174;51.588;7.328;2023-01-15T14:45:00;8.00;99.90
2327;DHT22;1174;51.588;7.328;2023-01-15T14:47:32;7.90;99.90
2327;DHT22;1174;51.588;7.328;2023-01-15T14:50:30;7.90;99.90
2327;DHT22;1174;51.588;7.328;2023-01-15T14:53:11;7.90;99.90
2327;DHT22;1174;51.588;7.328;2023-01-15T14:55:45;8.00;99.90
2327;DHT22;1174;51.588;7.328;2023-01-15T14:58:19;8.00;99.90
2327;DHT22;1174;51.588;7.328;2023-01-15T15:00:52;8.00;99.90
2327;DHT22;1174;51.588;7.328;2023-01-15T15:03:24;8.00;99.90
2327;DHT22;1174;51.588;7.328;2023-01-15T15:05:55;7.90;99.90
2327;DHT22;1174;51.588;7.328;2023-01-15T15:08:28;7.90;99.90
2327;DHT22;1174;51.588;7.328;2023-01-15T15:10:57;7.90;99.90
2327;DHT22;1174;51.588;7.328;2023-01-15T15:13:28;7.80;99.90
2327;DHT22;1174;51.588;7.328;2023-01-15T15:16:04;7.90;99.90
2327;DHT22;1174;51.588;7.328;2023-01-15T15:18:37;7.90;99.90
2327;DHT22;1174;51.588;7.328;2023-01-15T15:21:13;8.00;99.90
2327;DHT22;1174;51.588;7.328;2023-01-15T15:23:49;7.90;99.90
2327;DHT22;1174;51.588;7.328;2023-01-15T15:26:24;7.90;99.90
2327;DHT22;1174;51.588;7.328;2023-01-15T15:28:55;7.80;99.90
2327;DHT22;1174;51.588;7.328;2023-01-15T15:31:23;7.80;99.90
2327;DHT22;1174;51.588;7.328;2023-01-15T15:33:53;7.90;99.90
2327;DHT22;1174;51.588;7.328;2023-01-15T15:36:23;7.70;99.90
2327;DHT22;1174;51.588;7.328;2023-01-15T15:38:52;7.70;99.90
2327;DHT22;1174;51.588;7.328;2023-01-15T15:41:23;7.80;99.90
2327;DHT22;1174;51.588;7.328;2023-01-15T15:44:11;7.80;99.90
2327;DHT22;1174;51.588;7.328;2023-01-15T15:46:57;7.70;99.90
2327;DHT22;1174;51.588;7.328;2023-01-15T15:49:42;7.70;99.90
2327;DHT22;1174;51.588;7.328;2023-01-15T15:52:20;7.70;99.90
2327;DHT22;1174;51.588;7.328;2023-01-15T15:54:57;7.70;99.90
2327;DHT22;1174;51.588;7.328;2023-01-15T15:57:26;7.60;99.90
2327;DHT22;1174;51.588;7.328;2023-01-15T15:59:55;7.60;99.90
2327;DHT22;1174;51.588;7.328;2023-01-15T16:02:25;7.60;99.90
2327;DHT22;1174;51.588;7.328;2023-01-15T16:05:00;7.60;99.90
2327;DHT22;1174;51.588;7.328;2023-01-15T16:07:30;7.60;99.90
2327;DHT22;1174;51.588;7.328;2023-01-15T16:10:02;7.60;99.90
2327;DHT22;1174;51.588;7.328;2023-01-15T16:12:32;7.60;99.90
2327;DHT22;1174;51.588;7.328;2023-01-15T16:15:01;7.60;99.90
2327;DHT22;1174;51.588;7.328;2023-01-15T16:17:29;7.60;99.90
2327;DHT22;1174;51.588;7.328;2023-01-15T16:19:57;7.60;99.90
2327;DHT22;1174;51.588;7.328;2023-01-15T16:22:24;7.60;99.90
2327;DHT22;1174;51.588;7.328;2023-01-15T16:24:56;7.60;99.90
2327;DHT22;1174;51.588;7.328;2023-01-15T16:27:27;7.60;99.90
2327;DHT22;1174;51.588;7.328;2023-01-15T16:29:58;7.70;99.90
2327;DHT22;1174;51.588;7.328;2023-01-15T16:32:27;7.70;99.90
2327;DHT22;1174;51.588;7.328;2023-01-15T16:35:04;7.60;99.90
2327;DHT22;1174;51.588;7.328;2023-01-15T16:37:31;7.60;99.90
2327;DHT22;1174;51.588;7.328;2023-01-15T16:40:03;7.60;99.90
2327;DHT22;1174;51.588;7.328;2023-01-15T16:42:34;7.60;99.90
2327;DHT22;1174;51.588;7.328;2023-01-15T16:45:03;7.60;99.90
2327;DHT22;1174;51.588;7.328;2023-01-15T16:47:33;7.60;99.90
2327;DHT22;1174;51.588;7.328;2023-01-15T16:50:25;7.70;99.90
2327;DHT22;1174;51.588;7.328;2023-01-15T16:52:54;7.70;99.90
2327;DHT22;1174;51.588;7.328;2023-01-15T16:55:40;7.60;99.90
2327;DHT22;1174;51.588;7.328;2023-01-15T16:58:17;7.60;99.90
2327;DHT22;1174;51.588;7.328;2023-01-15T17:00:47;7.70;99.90
2327;DHT22;1174;51.588;7.328;2023-01-15T17:03:16;7.60;99.90
2327;DHT22;1174;51.588;7.328;2023-01-15T17:05:45;7.70;99.90
2327;DHT22;1174;51.588;7.328;2023-01-15T17:08:15;7.70;99.90